Gambell, AK

12:07 AM AKDT on September 01, 2014 (GMT -0800)
Savoonga | Change Station
CLOSE
Current Station
Airport
Location: Savoonga,
Elevation: 52 ft
Nearby Weather Stations

Elev 52 ft 63.69 °N, 170.49 °W | Updated 2 hours ago

Overcast
Overcast
54 °F
Feels Like 54 °F
N
22
Wind Variable Wind from SW
Gusts 26 mph

Today
High -- | Low -- °F
--% Chance of Precip.
Yesterday
High -- | Low -- °F
Precip. -- in
8:11 AM 10:40 PM
Waxing Crescent, 38% visible
Pressure 29.62 in
Visibility 10.0 miles
Clouds Overcast 9000 ft
Dew Point 48 °F
Humidity 82%
Rainfall 0.00 in
Snow Depth Not available.
UV 0 out of 12
Pollen Not available.
Air Quality Not available.
Flu Activity Not available.
METAR PASA 010538Z 22019G23KT 10SM OVC090 12/09 A2962 RMK VIA AISR

More Conditions Fewer Conditions

Pressure 29.62 in
Visibility 10.0 miles
Clouds Overcast 9000 ft
Dew Point 48 °F
Humidity 82%
Rainfall 0.00 in
Snow Depth Not available.
UV 0 out of 12
Pollen Not available.
Air Quality Not available.
Flu Activity Not available.
METAR PASA 010538Z 22019G23KT 10SM OVC090 12/09 A2962 RMK VIA AISR

More Conditions Fewer Conditions

10-Day Weather Forecast

Almanac

Astronomy

Sep. 01, 2014 Rise Set
Actual Time 8:11 AM AKDT 10:40 PM AKDT
Civil Twilight 7:19 AM AKDT 11:32 PM AKDT
Nautical Twilight 6:06 AM AKDT 12:43 AM AKDT
Astronomical Twilight 3:37 AM AKDT 2:47 AM AKDT
Moon 5:36 PM AKDT No Moon Set
Length of Visible Light 16h 13m
Length of Day
14h 28m
Tomorrow will be 6m 23s shorter.
Waxing Crescent, 38% of the Moon is Illuminated
Today
Waxing Crescent
Sep 2
First Quarter
Sep 8
Full
Sep 15
Last Quarter
Sep 24
New

Community

WunderPhotos

Upload Photos

1,749,175 photos uploaded!

Nearby

Snow Depth

Station Depth Elevation
Rocky Point 4 in 500 ft
Gobblers Knob 0 in 2030 ft
Coldfoot 0 in 1040 ft
Susitna Valley High 2 in 375 ft
Atigun Pass 4 in 4800 ft

Earthquake Activity

City Distance Mag. Time & Date
No recent earthquake activity has been reported nearby.
Minimum magnitude displayed is 2.5.

Coastal Water Temperatures

Place Temperature
No Stations Reporting

Nearby Weather Stations